Time;durP1;ratioP1;P1;durP2;ratioP2;P2;SDS_P1;SDS_P2;PMS_P1;PMS_P2;Temp;Humidity;BMP_temperature;BMP_pressure;BME280_temperature;BME280_humidity;BME280_pressure;Samples;Min_cycle;Max_cycle;Signal;HPM_P1;HPM_P2
2022/11/13 00:01:45;;;;;;;0.40;0.40;;;;;;;;;;5014187;28;20041;-75
2022/11/13 00:04:11;;;;;;;0.30;0.30;;;;;;;;;;5012972;28;20043;-76
2022/11/13 00:06:36;;;;;;;0.88;0.75;;;;;;;;;;5013902;28;20038;-76
2022/11/13 00:09:02;;;;;;;0.77;0.30;;;;;;;;;;5014120;28;20107;-76
2022/11/13 00:11:27;;;;;;;0.43;0.40;;;;;;;;;;5013935;28;20041;-76
2022/11/13 00:13:52;;;;;;;0.32;0.32;;;;;;;;;;5013674;28;20088;-76
2022/11/13 00:16:19;;;;;;;0.60;0.60;;;;;;;;;;5014067;28;20061;-75
2022/11/13 00:18:45;;;;;;;0.40;0.38;;;;;;;;;;5012935;28;20483;-75
2022/11/13 00:21:15;;;;;;;1.10;1.08;;;;;;;;;;4996110;28;20044;-76
2022/11/13 00:23:40;;;;;;;0.88;0.88;;;;;;;;;;5013805;28;20506;-75
2022/11/13 00:26:19;;;;;;;0.88;0.38;;;;;;;;;;5013976;28;20038;-76
2022/11/13 00:28:44;;;;;;;1.02;0.90;;;;;;;;;;5013476;28;20037;-76
2022/11/13 00:31:11;;;;;;;0.82;0.82;;;;;;;;;;5013736;28;20042;-76
2022/11/13 00:33:36;;;;;;;0.60;0.60;;;;;;;;;;5013718;28;20061;-75
2022/11/13 00:36:06;;;;;;;0.43;0.43;;;;;;;;;;5013175;28;20033;-76
2022/11/13 00:38:31;;;;;;;0.60;0.30;;;;;;;;;;5013598;28;20518;-76
2022/11/13 00:40:57;;;;;;;0.63;0.45;;;;;;;;;;4995682;28;20057;-76
2022/11/13 00:43:22;;;;;;;0.50;0.50;;;;;;;;;;5011813;28;20172;-75
2022/11/13 00:45:48;;;;;;;0.40;0.40;;;;;;;;;;5012010;28;20037;-75
2022/11/13 00:48:13;;;;;;;0.57;0.50;;;;;;;;;;5011783;28;20152;-75
2022/11/13 00:50:38;;;;;;;0.55;0.55;;;;;;;;;;5011355;28;20041;-76
2022/11/13 00:53:04;;;;;;;0.77;0.35;;;;;;;;;;5010143;28;20444;-76
2022/11/13 00:55:29;;;;;;;0.57;0.57;;;;;;;;;;4994013;28;20451;-76
2022/11/13 00:57:55;;;;;;;1.58;0.77;;;;;;;;;;4994109;28;20038;-76
2022/11/13 01:00:20;;;;;;;0.35;0.35;;;;;;;;;;5011224;28;20037;-78
2022/11/13 01:02:45;;;;;;;3.53;0.30;;;;;;;;;;4994050;28;20034;-77
2022/11/13 01:05:11;;;;;;;3.28;0.43;;;;;;;;;;5011534;28;20125;-79
2022/11/13 01:07:36;;;;;;;0.85;0.85;;;;;;;;;;5011518;28;20041;-79
2022/11/13 01:10:05;;;;;;;0.82;0.82;;;;;;;;;;5011197;28;20037;-79
2022/11/13 01:12:30;;;;;;;0.35;0.30;;;;;;;;;;5011235;28;20125;-77
2022/11/13 01:14:56;;;;;;;1.23;0.50;;;;;;;;;;5010997;28;20120;-77
2022/11/13 01:17:21;;;;;;;1.20;0.93;;;;;;;;;;5011401;28;20036;-76
2022/11/13 01:19:46;;;;;;;2.15;0.38;;;;;;;;;;5011348;28;20030;-75
2022/11/13 01:22:12;;;;;;;4.50;1.17;;;;;;;;;;5010839;28;20060;-74
2022/11/13 01:24:37;;;;;;;0.90;0.90;;;;;;;;;;5009247;28;20038;-77
2022/11/13 01:27:04;;;;;;;0.30;0.28;;;;;;;;;;5011178;28;20084;-77
2022/11/13 01:29:29;;;;;;;1.38;0.40;;;;;;;;;;5010289;28;20073;-78
2022/11/13 01:31:55;;;;;;;2.70;1.08;;;;;;;;;;5011215;28;20522;-78
2022/11/13 01:34:20;;;;;;;0.75;0.75;;;;;;;;;;5011376;28;20034;-79
2022/11/13 01:36:46;;;;;;;1.05;0.82;;;;;;;;;;5010853;28;20041;-78
2022/11/13 01:39:11;;;;;;;0.28;0.28;;;;;;;;;;5010989;28;20145;-78
2022/11/13 01:41:37;;;;;;;0.73;0.30;;;;;;;;;;5010630;28;20504;-79
2022/11/13 01:44:03;;;;;;;0.50;0.35;;;;;;;;;;5012274;28;20551;-78
2022/11/13 01:46:30;;;;;;;0.28;0.28;;;;;;;;;;5012566;28;20116;-76
2022/11/13 01:49:10;;;;;;;0.50;0.50;;;;;;;;;;5012371;28;20567;-76
2022/11/13 01:51:35;;;;;;;0.32;0.32;;;;;;;;;;5011982;28;20542;-79
2022/11/13 01:54:03;;;;;;;0.85;0.43;;;;;;;;;;4994904;28;20033;-78
2022/11/13 01:56:28;;;;;;;0.52;0.52;;;;;;;;;;5012497;28;20034;-79
2022/11/13 01:58:56;;;;;;;0.50;0.50;;;;;;;;;;5012137;28;20096;-78
2022/11/13 02:01:22;;;;;;;0.73;0.73;;;;;;;;;;5012509;28;20041;-79
2022/11/13 02:03:47;;;;;;;0.40;0.35;;;;;;;;;;5012319;28;20041;-79
2022/11/13 02:06:13;;;;;;;0.30;0.28;;;;;;;;;;5012034;28;20049;-79
2022/11/13 02:08:38;;;;;;;0.85;0.85;;;;;;;;;;5012290;28;20111;-78
2022/11/13 02:11:04;;;;;;;1.23;0.47;;;;;;;;;;5012197;28;20030;-78
2022/11/13 02:13:29;;;;;;;1.05;0.28;;;;;;;;;;5011985;28;20038;-78
2022/11/13 02:15:55;;;;;;;0.80;0.80;;;;;;;;;;5012221;28;20120;-78
2022/11/13 02:18:21;;;;;;;0.80;0.80;;;;;;;;;;5012159;28;20049;-78
2022/11/13 02:20:55;;;;;;;0.68;0.35;;;;;;;;;;5011951;28;20026;-78
2022/11/13 02:23:23;;;;;;;0.90;0.90;;;;;;;;;;4994693;28;20061;-79
2022/11/13 02:25:51;;;;;;;0.85;0.30;;;;;;;;;;5012221;28;20127;-79
2022/11/13 02:28:16;;;;;;;0.93;0.93;;;;;;;;;;5011809;28;20126;-79
2022/11/13 02:30:41;;;;;;;0.40;0.40;;;;;;;;;;5012044;28;20117;-79
2022/11/13 02:33:21;;;;;;;0.73;0.73;;;;;;;;;;5012028;28;20084;-79
2022/11/13 02:35:47;;;;;;;0.73;0.70;;;;;;;;;;5011731;28;20088;-78
2022/11/13 02:38:12;;;;;;;0.75;0.75;;;;;;;;;;5011976;28;20041;-79
2022/11/13 02:40:38;;;;;;;0.65;0.65;;;;;;;;;;4994170;28;20038;-79
2022/11/13 02:43:03;;;;;;;0.85;0.85;;;;;;;;;;5013648;28;20041;-80
2022/11/13 02:45:29;;;;;;;1.00;0.95;;;;;;;;;;5014469;28;20096;-79
2022/11/13 02:47:54;;;;;;;1.45;0.73;;;;;;;;;;5014528;28;20037;-80
2022/11/13 02:50:19;;;;;;;1.95;1.23;;;;;;;;;;5012898;28;20040;-80
2022/11/13 02:52:45;;;;;;;1.13;0.82;;;;;;;;;;5013493;28;20034;-80
2022/11/13 02:55:10;;;;;;;0.40;0.40;;;;;;;;;;4996974;28;20033;-80
2022/11/13 02:57:35;;;;;;;0.30;0.30;;;;;;;;;;5014024;28;20041;-80
2022/11/13 03:00:01;;;;;;;0.52;0.52;;;;;;;;;;5014221;28;20025;-80
2022/11/13 03:02:26;;;;;;;0.35;0.30;;;;;;;;;;5014275;28;20088;-78
2022/11/13 03:04:52;;;;;;;1.33;1.23;;;;;;;;;;5013185;28;20034;-76
2022/11/13 03:07:17;;;;;;;0.55;0.20;;;;;;;;;;5013690;28;20408;-77
2022/11/13 03:09:42;;;;;;;0.88;0.88;;;;;;;;;;5013536;28;20091;-77
2022/11/13 03:12:08;;;;;;;1.02;1.02;;;;;;;;;;5013159;28;20030;-77
2022/11/13 03:14:34;;;;;;;0.50;0.50;;;;;;;;;;5013527;28;20439;-76
2022/11/13 03:16:59;;;;;;;0.30;0.30;;;;;;;;;;5013629;28;20041;-77
2022/11/13 03:19:25;;;;;;;0.93;0.93;;;;;;;;;;5013302;28;20036;-79
2022/11/13 03:21:50;;;;;;;2.05;0.47;;;;;;;;;;5013726;28;20064;-75
2022/11/13 03:24:16;;;;;;;0.75;0.75;;;;;;;;;;5013436;28;20116;-74
2022/11/13 03:26:41;;;;;;;0.90;0.90;;;;;;;;;;5012980;28;20044;-74
2022/11/13 03:29:06;;;;;;;0.40;0.38;;;;;;;;;;5013180;28;20038;-74
2022/11/13 03:31:32;;;;;;;0.85;0.85;;;;;;;;;;5013129;28;20107;-74
2022/11/13 03:33:57;;;;;;;0.88;0.82;;;;;;;;;;5012771;28;20033;-75
2022/11/13 03:36:23;;;;;;;0.85;0.85;;;;;;;;;;5012960;28;20117;-74
2022/11/13 03:38:48;;;;;;;1.00;1.00;;;;;;;;;;5013014;28;20038;-75
2022/11/13 03:41:13;;;;;;;1.30;1.30;;;;;;;;;;5012322;28;20069;-75
2022/11/13 03:43:39;;;;;;;0.30;0.30;;;;;;;;;;5014266;28;20033;-75
2022/11/13 03:46:05;;;;;;;0.52;0.52;;;;;;;;;;5014701;28;20061;-74
2022/11/13 03:48:30;;;;;;;0.10;0.10;;;;;;;;;;5014172;28;20454;-74
2022/11/13 03:50:55;;;;;;;0.45;0.30;;;;;;;;;;5014432;28;20034;-74
2022/11/13 03:53:21;;;;;;;1.30;0.85;;;;;;;;;;5012269;28;20092;-74
2022/11/13 03:55:46;;;;;;;0.57;0.57;;;;;;;;;;5013936;28;20042;-74
2022/11/13 03:58:12;;;;;;;0.40;0.38;;;;;;;;;;5014528;28;20065;-74
2022/11/13 04:00:38;;;;;;;0.30;0.25;;;;;;;;;;5014510;28;20029;-75
2022/11/13 04:03:04;;;;;;;0.10;0.10;;;;;;;;;;5014063;28;20438;-75
2022/11/13 04:05:29;;;;;;;0.32;0.30;;;;;;;;;;5013309;28;20034;-77
2022/11/13 04:07:54;;;;;;;0.68;0.68;;;;;;;;;;5014333;28;20124;-77
2022/11/13 04:10:20;;;;;;;0.40;0.40;;;;;;;;;;4996615;28;20044;-77
2022/11/13 04:12:45;;;;;;;0.40;0.40;;;;;;;;;;4996072;28;20045;-77
2022/11/13 04:15:11;;;;;;;1.02;0.55;;;;;;;;;;5014122;28;20038;-79
2022/11/13 04:17:36;;;;;;;0.30;0.30;;;;;;;;;;5014096;28;20046;-77
2022/11/13 04:20:02;;;;;;;0.93;0.93;;;;;;;;;;5013733;28;20033;-77
2022/11/13 04:22:27;;;;;;;0.32;0.32;;;;;;;;;;5014015;28;20040;-77
2022/11/13 04:24:52;;;;;;;1.15;1.15;;;;;;;;;;5013795;28;20030;-77
2022/11/13 04:27:18;;;;;;;0.75;0.75;;;;;;;;;;5013590;28;20041;-76
2022/11/13 04:29:43;;;;;;;0.38;0.38;;;;;;;;;;5013835;28;20092;-76
2022/11/13 04:32:08;;;;;;;0.70;0.70;;;;;;;;;;5013579;28;20029;-77
2022/11/13 04:34:34;;;;;;;0.75;0.60;;;;;;;;;;5013043;28;20037;-79
2022/11/13 04:36:59;;;;;;;1.10;0.63;;;;;;;;;;5013683;28;20033;-78
2022/11/13 04:39:25;;;;;;;0.60;0.60;;;;;;;;;;5013309;28;20496;-78
2022/11/13 04:44:34;;;;;;;0.28;0.28;;;;;;;;;;5012253;28;20080;-81
2022/11/13 04:46:59;;;;;;;0.85;0.80;;;;;;;;;;5012082;28;20567;-80
2022/11/13 04:49:24;;;;;;;0.52;0.52;;;;;;;;;;5011531;28;20041;-80
2022/11/13 04:51:50;;;;;;;0.45;0.45;;;;;;;;;;5011893;28;20040;-80
2022/11/13 04:54:15;;;;;;;0.52;0.52;;;;;;;;;;5012074;28;20044;-80
2022/11/13 04:56:40;;;;;;;0.35;0.35;;;;;;;;;;5011588;28;20125;-79
2022/11/13 04:59:06;;;;;;;0.40;0.40;;;;;;;;;;5011989;28;20472;-78
2022/11/13 05:01:33;;;;;;;0.10;0.10;;;;;;;;;;5011912;28;20415;-78
2022/11/13 05:03:58;;;;;;;0.38;0.38;;;;;;;;;;5011018;28;20040;-79
2022/11/13 05:06:24;;;;;;;0.50;0.38;;;;;;;;;;5011481;28;20041;-79
2022/11/13 05:08:49;;;;;;;0.43;0.43;;;;;;;;;;5011809;28;20041;-78
2022/11/13 05:11:14;;;;;;;0.20;0.20;;;;;;;;;;5011033;28;20030;-78
2022/11/13 05:13:40;;;;;;;0.38;0.38;;;;;;;;;;4992384;28;20180;-78
2022/11/13 05:16:06;;;;;;;0.85;0.85;;;;;;;;;;5011411;28;20117;-78
2022/11/13 05:18:32;;;;;;;0.20;0.20;;;;;;;;;;4993788;28;20030;-79
2022/11/13 05:20:58;;;;;;;0.28;0.28;;;;;;;;;;5011842;28;20155;-79
2022/11/13 05:23:23;;;;;;;0.68;0.68;;;;;;;;;;4994078;28;20030;-78
2022/11/13 05:25:49;;;;;;;0.68;0.68;;;;;;;;;;4993701;28;20033;-79
2022/11/13 05:28:14;;;;;;;0.47;0.47;;;;;;;;;;5011671;28;20042;-78
2022/11/13 05:30:39;;;;;;;0.50;0.50;;;;;;;;;;5011436;28;20033;-78
2022/11/13 05:33:05;;;;;;;0.55;0.40;;;;;;;;;;5010766;28;20034;-77
2022/11/13 05:35:30;;;;;;;0.93;0.93;;;;;;;;;;5010928;28;20057;-75
2022/11/13 05:37:59;;;;;;;0.40;0.40;;;;;;;;;;5011016;28;20041;-74
2022/11/13 05:40:24;;;;;;;0.30;0.10;;;;;;;;;;5010583;28;20468;-75
2022/11/13 05:42:51;;;;;;;1.17;0.82;;;;;;;;;;5011323;28;20137;-75
2022/11/13 05:45:17;;;;;;;0.30;0.30;;;;;;;;;;5012507;28;20088;-74
2022/11/13 05:47:42;;;;;;;0.50;0.50;;;;;;;;;;5012150;28;20025;-75
2022/11/13 05:50:07;;;;;;;0.35;0.35;;;;;;;;;;5012398;28;20427;-75
2022/11/13 05:52:33;;;;;;;0.88;0.88;;;;;;;;;;4994456;28;20546;-77
2022/11/13 05:54:58;;;;;;;0.30;0.30;;;;;;;;;;4994596;28;20103;-78
2022/11/13 05:57:24;;;;;;;0.40;0.30;;;;;;;;;;5012472;28;20026;-79
2022/11/13 05:59:49;;;;;;;0.50;0.50;;;;;;;;;;5012408;28;20038;-81
2022/11/13 06:02:14;;;;;;;0.82;0.82;;;;;;;;;;5012287;28;20048;-82
2022/11/13 06:04:40;;;;;;;1.05;1.05;;;;;;;;;;5012685;28;20160;-76
2022/11/13 06:07:05;;;;;;;0.30;0.20;;;;;;;;;;5012487;28;20401;-81
2022/11/13 06:09:30;;;;;;;0.63;0.63;;;;;;;;;;5012100;28;20490;-82
2022/11/13 06:11:56;;;;;;;0.43;0.43;;;;;;;;;;5011935;28;20045;-81
2022/11/13 06:14:21;;;;;;;0.93;0.93;;;;;;;;;;5012264;28;20030;-81
2022/11/13 06:16:46;;;;;;;0.95;0.95;;;;;;;;;;5013046;28;20088;-80
2022/11/13 06:19:12;;;;;;;0.85;0.85;;;;;;;;;;5016390;28;20032;-81
2022/11/13 06:21:38;;;;;;;0.30;0.30;;;;;;;;;;5016399;28;20088;-81
2022/11/13 06:24:04;;;;;;;1.23;0.38;;;;;;;;;;5013855;28;20492;-81
2022/11/13 06:26:30;;;;;;;1.05;1.02;;;;;;;;;;5016205;28;20076;-81
2022/11/13 06:28:56;;;;;;;0.95;0.95;;;;;;;;;;5016089;28;20040;-81
2022/11/13 06:31:23;;;;;;;0.32;0.32;;;;;;;;;;4998062;28;20030;-78
2022/11/13 06:33:48;;;;;;;0.30;0.30;;;;;;;;;;5016041;28;20407;-77
2022/11/13 06:36:18;;;;;;;0.38;0.38;;;;;;;;;;5016038;28;20029;-78
2022/11/13 06:38:43;;;;;;;0.60;0.60;;;;;;;;;;5015649;28;20034;-77
2022/11/13 06:41:10;;;;;;;0.38;0.20;;;;;;;;;;5015588;28;20539;-78
2022/11/13 06:43:35;;;;;;;0.43;0.43;;;;;;;;;;5014285;28;20040;-75
2022/11/13 06:46:05;;;;;;;0.57;0.40;;;;;;;;;;4996250;28;20611;-75
2022/11/13 06:48:31;;;;;;;0.32;0.20;;;;;;;;;;4996319;28;20408;-75
2022/11/13 06:50:59;;;;;;;1.05;1.05;;;;;;;;;;5013891;28;20034;-75
2022/11/13 06:53:24;;;;;;;0.85;0.85;;;;;;;;;;5013479;28;20053;-75
2022/11/13 06:55:50;;;;;;;1.05;1.05;;;;;;;;;;5013882;28;20488;-76
2022/11/13 06:58:15;;;;;;;0.38;0.38;;;;;;;;;;5014181;28;20484;-80
2022/11/13 07:00:42;;;;;;;1.02;1.02;;;;;;;;;;5013822;28;20142;-77
